Time,TemperatureF,DewpointF,PressureIn,WindDirection,WindDirectionDegrees,WindSpeedMPH,WindSpeedGustMPH,Humidity,HourlyPrecipIn,Conditions,Clouds,dailyrainin,SolarRadiationWatts/m^2,SoftwareType,DateUTC
2013-06-27 00:01:00,68.0,28.0,-100.00,WNW,286,7.0,12.0,22,0.00,,,0.00,0.000000,,2013-06-27 06:01:00,
2013-06-27 00:12:00,68.0,28.0,-100.00,WNW,286,7.0,12.0,22,0.00,,,0.00,0.000000,,2013-06-27 06:12:00,
2013-06-27 00:22:00,68.0,28.0,-100.00,WNW,286,7.0,12.0,22,0.00,,,0.00,0.000000,,2013-06-27 06:22:00,
2013-06-27 00:53:00,66.0,29.0,-100.00,WNW,285,7.0,14.0,25,0.00,,,0.00,0.000000,,2013-06-27 06:53:00,
2013-06-27 01:02:00,66.0,29.0,-100.00,WNW,285,7.0,14.0,25,0.00,,,0.00,0.000000,,2013-06-27 07:02:00,
2013-06-27 01:12:00,66.0,29.0,-100.00,WNW,285,7.0,14.0,25,0.00,,,0.00,0.000000,,2013-06-27 07:12:00,
2013-06-27 01:22:00,66.0,29.0,-100.00,WNW,285,7.0,14.0,25,0.00,,,0.00,0.000000,,2013-06-27 07:22:00,
2013-06-27 01:33:00,66.0,29.0,-100.00,WNW,285,7.0,14.0,25,0.00,,,0.00,0.000000,,2013-06-27 07:33:00,
2013-06-27 01:34:00,65.0,29.0,-100.00,West,262,6.0,15.0,26,0.00,,,0.00,0.000000,,2013-06-27 07:34:00,
2013-06-27 02:01:00,65.0,29.0,-100.00,West,262,6.0,15.0,26,0.00,,,0.00,0.000000,,2013-06-27 08:01:00,
2013-06-27 02:11:00,65.0,29.0,-100.00,West,262,6.0,15.0,26,0.00,,,0.00,0.000000,,2013-06-27 08:11:00,
2013-06-27 02:22:00,65.0,29.0,-100.00,West,262,6.0,15.0,26,0.00,,,0.00,0.000000,,2013-06-27 08:22:00,
2013-06-27 02:34:00,64.0,29.0,-100.00,WSW,253,7.0,11.0,27,0.00,,,0.00,0.000000,,2013-06-27 08:34:00,
2013-06-27 03:02:00,64.0,29.0,-100.00,WSW,253,7.0,11.0,27,0.00,,,0.00,0.000000,,2013-06-27 09:02:00,
2013-06-27 03:11:00,64.0,29.0,-100.00,WSW,253,7.0,11.0,27,0.00,,,0.00,0.000000,,2013-06-27 09:11:00,
2013-06-27 03:22:00,64.0,29.0,-100.00,WSW,253,7.0,11.0,27,0.00,,,0.00,0.000000,,2013-06-27 09:22:00,
2013-06-27 04:01:00,63.0,29.0,-100.00,WSW,245,6.0,11.0,27,0.00,,,0.00,0.000000,,2013-06-27 10:01:00,
2013-06-27 04:11:00,63.0,29.0,-100.00,WSW,245,6.0,11.0,27,0.00,,,0.00,0.000000,,2013-06-27 10:11:00,
2013-06-27 04:22:00,63.0,29.0,-100.00,WSW,245,6.0,11.0,27,0.00,,,0.00,0.000000,,2013-06-27 10:22:00,
2013-06-27 04:32:00,63.0,29.0,-100.00,WSW,245,6.0,11.0,27,0.00,,,0.00,0.000000,,2013-06-27 10:32:00,
2013-06-27 04:54:00,61.0,29.0,-100.00,West,265,3.0,9.0,29,0.00,,,0.00,0.000000,,2013-06-27 10:54:00,
2013-06-27 05:01:00,61.0,29.0,-100.00,West,265,3.0,9.0,29,0.00,,,0.00,0.000000,,2013-06-27 11:01:00,
2013-06-27 05:11:00,61.0,29.0,-100.00,West,265,3.0,9.0,29,0.00,,,0.00,0.000000,,2013-06-27 11:11:00,
2013-06-27 05:21:00,61.0,29.0,-100.00,West,265,3.0,9.0,29,0.00,,,0.00,0.000000,,2013-06-27 11:21:00,
2013-06-27 05:33:00,61.0,29.0,-100.00,West,265,3.0,9.0,29,0.00,,,0.00,0.000000,,2013-06-27 11:33:00,
2013-06-27 05:34:00,62.0,28.0,-100.00,WSW,250,3.0,8.0,27,0.00,,,0.00,1.000000,,2013-06-27 11:34:00,
2013-06-27 06:01:00,62.0,28.0,-100.00,WSW,250,3.0,8.0,27,0.00,,,0.00,1.000000,,2013-06-27 12:01:00,
2013-06-27 06:11:00,62.0,28.0,-100.00,WSW,250,3.0,8.0,27,0.00,,,0.00,1.000000,,2013-06-27 12:11:00,
2013-06-27 06:22:00,62.0,28.0,-100.00,WSW,250,3.0,8.0,27,0.00,,,0.00,1.000000,,2013-06-27 12:22:00,
2013-06-27 06:34:00,63.0,28.0,-100.00,SW,232,5.0,7.0,26,0.00,,,0.00,15.000000,,2013-06-27 12:34:00,
2013-06-27 07:52:00,65.0,28.0,-100.00,WNW,286,4.0,8.0,25,0.00,,,0.00,204.000000,,2013-06-27 13:52:00,
2013-06-27 08:02:00,65.0,28.0,-100.00,WNW,286,4.0,8.0,25,0.00,,,0.00,204.000000,,2013-06-27 14:02:00,
2013-06-27 08:11:00,65.0,28.0,-100.00,WNW,286,4.0,8.0,25,0.00,,,0.00,204.000000,,2013-06-27 14:11:00,
2013-06-27 08:22:00,65.0,28.0,-100.00,WNW,286,4.0,8.0,25,0.00,,,0.00,204.000000,,2013-06-27 14:22:00,
2013-06-27 08:33:00,65.0,28.0,-100.00,WNW,286,4.0,8.0,25,0.00,,,0.00,204.000000,,2013-06-27 14:33:00,
2013-06-27 09:01:00,69.0,27.0,-100.00,West,266,4.0,7.0,21,0.00,,,0.00,403.000000,,2013-06-27 15:01:00,
2013-06-27 09:12:00,69.0,27.0,-100.00,West,266,4.0,7.0,21,0.00,,,0.00,403.000000,,2013-06-27 15:12:00,
2013-06-27 09:22:00,69.0,27.0,-100.00,West,266,4.0,7.0,21,0.00,,,0.00,403.000000,,2013-06-27 15:22:00,
2013-06-27 09:33:00,69.0,27.0,-100.00,West,266,4.0,7.0,21,0.00,,,0.00,403.000000,,2013-06-27 15:33:00,
2013-06-27 09:34:00,72.0,29.0,-100.00,NW,307,4.0,8.0,20,0.00,,,0.00,600.000000,,2013-06-27 15:34:00,
2013-06-27 10:02:00,72.0,29.0,-100.00,NW,307,4.0,8.0,20,0.00,,,0.00,600.000000,,2013-06-27 16:02:00,
2013-06-27 10:11:00,72.0,29.0,-100.00,NW,307,4.0,8.0,20,0.00,,,0.00,600.000000,,2013-06-27 16:11:00,
2013-06-27 10:23:00,72.0,29.0,-100.00,NW,307,4.0,8.0,20,0.00,,,0.00,600.000000,,2013-06-27 16:23:00,
2013-06-27 11:01:00,75.0,29.0,-100.00,NW,323,6.0,13.0,18,0.00,,,0.00,779.000000,,2013-06-27 17:01:00,
2013-06-27 11:11:00,75.0,29.0,-100.00,NW,323,6.0,13.0,18,0.00,,,0.00,779.000000,,2013-06-27 17:11:00,
2013-06-27 11:22:00,75.0,29.0,-100.00,NW,323,6.0,13.0,18,0.00,,,0.00,779.000000,,2013-06-27 17:22:00,
2013-06-27 11:33:00,75.0,29.0,-100.00,NW,323,6.0,13.0,18,0.00,,,0.00,779.000000,,2013-06-27 17:33:00,
2013-06-27 11:53:00,78.0,25.0,-100.00,NW,315,8.0,13.0,14,0.00,,,0.00,916.000000,,2013-06-27 17:53:00,
2013-06-27 12:01:00,78.0,25.0,-100.00,NW,315,8.0,13.0,14,0.00,,,0.00,916.000000,,2013-06-27 18:01:00,
2013-06-27 12:11:00,78.0,25.0,-100.00,NW,315,8.0,13.0,14,0.00,,,0.00,916.000000,,2013-06-27 18:11:00,
2013-06-27 12:22:00,78.0,25.0,-100.00,NW,315,8.0,13.0,14,0.00,,,0.00,916.000000,,2013-06-27 18:22:00,
2013-06-27 12:32:00,78.0,25.0,-100.00,NW,315,8.0,13.0,14,0.00,,,0.00,916.000000,,2013-06-27 18:32:00,
2013-06-27 13:01:00,81.0,22.0,-100.00,NNW,342,5.0,13.0,11,0.00,,,0.00,1004.000000,,2013-06-27 19:01:00,
2013-06-27 13:11:00,81.0,22.0,-100.00,NNW,342,5.0,13.0,11,0.00,,,0.00,1004.000000,,2013-06-27 19:11:00,
2013-06-27 13:23:00,81.0,22.0,-100.00,NNW,342,5.0,13.0,11,0.00,,,0.00,1004.000000,,2013-06-27 19:23:00,
2013-06-27 13:33:00,81.0,22.0,-100.00,NNW,342,5.0,13.0,11,0.00,,,0.00,1004.000000,,2013-06-27 19:33:00,
2013-06-27 13:34:00,86.0,23.0,-100.00,North,360,6.0,20.0,10,0.00,,,0.00,1051.000000,,2013-06-27 19:34:00,
2013-06-27 14:01:00,86.0,23.0,-100.00,North,360,6.0,20.0,10,0.00,,,0.00,1051.000000,,2013-06-27 20:01:00,
2013-06-27 14:11:00,86.0,23.0,-100.00,North,360,6.0,20.0,10,0.00,,,0.00,1051.000000,,2013-06-27 20:11:00,
2013-06-27 14:22:00,86.0,23.0,-100.00,North,360,6.0,20.0,10,0.00,,,0.00,1051.000000,,2013-06-27 20:22:00,
2013-06-27 15:04:00,83.0,21.0,-100.00,NNW,336,11.0,19.0,10,0.00,,,0.00,1018.000000,,2013-06-27 21:04:00,
2013-06-27 15:13:00,83.0,21.0,-100.00,NNW,336,11.0,19.0,10,0.00,,,0.00,1018.000000,,2013-06-27 21:13:00,
2013-06-27 15:24:00,83.0,21.0,-100.00,NNW,336,11.0,19.0,10,0.00,,,0.00,1018.000000,,2013-06-27 21:24:00,
2013-06-27 16:06:00,88.0,22.0,-100.00,NE,35,5.0,18.0,9,0.00,,,0.00,1023.000000,,2013-06-27 22:06:00,
2013-06-27 16:14:00,88.0,22.0,-100.00,NE,35,5.0,18.0,9,0.00,,,0.00,1023.000000,,2013-06-27 22:14:00,
2013-06-27 16:23:00,88.0,22.0,-100.00,NE,35,5.0,18.0,9,0.00,,,0.00,1023.000000,,2013-06-27 22:23:00,
2013-06-27 16:33:00,88.0,22.0,-100.00,NE,35,5.0,18.0,9,0.00,,,0.00,1023.000000,,2013-06-27 22:33:00,
2013-06-27 16:34:00,80.0,19.0,-100.00,SSW,202,3.0,13.0,10,0.00,,,0.00,159.000000,,2013-06-27 22:34:00,
2013-06-27 16:58:00,80.0,19.0,-100.00,SSW,202,3.0,13.0,10,0.00,,,0.00,159.000000,,2013-06-27 22:58:00,
2013-06-27 17:15:00,80.0,19.0,-100.00,SSW,202,3.0,13.0,10,0.00,,,0.00,159.000000,,2013-06-27 23:15:00,
2013-06-27 17:25:00,80.0,19.0,-100.00,SSW,202,3.0,13.0,10,0.00,,,0.00,159.000000,,2013-06-27 23:25:00,
2013-06-27 17:34:00,80.0,23.0,-100.00,SSE,148,5.0,14.0,12,0.00,,,0.00,138.000000,,2013-06-27 23:34:00,
2013-06-27 18:06:00,80.0,23.0,-100.00,SSE,148,5.0,14.0,12,0.00,,,0.00,138.000000,,2013-06-28 00:06:00,
2013-06-27 18:13:00,80.0,23.0,-100.00,SSE,148,5.0,14.0,12,0.00,,,0.00,138.000000,,2013-06-28 00:13:00,
2013-06-27 18:27:00,80.0,23.0,-100.00,SSE,148,5.0,14.0,12,0.00,,,0.00,138.000000,,2013-06-28 00:27:00,
2013-06-27 18:34:00,80.0,28.0,-100.00,SSE,165,7.0,19.0,15,0.00,,,0.00,345.000000,,2013-06-28 00:34:00,
2013-06-27 18:56:00,80.0,28.0,-100.00,SSE,165,7.0,19.0,15,0.00,,,0.00,345.000000,,2013-06-28 00:56:00,
2013-06-27 19:06:00,80.0,28.0,-100.00,SSE,165,7.0,19.0,15,0.00,,,0.00,345.000000,,2013-06-28 01:06:00,
2013-06-27 19:13:00,80.0,28.0,-100.00,SSE,165,7.0,19.0,15,0.00,,,0.00,345.000000,,2013-06-28 01:13:00,
2013-06-27 19:24:00,80.0,28.0,-100.00,SSE,165,7.0,19.0,15,0.00,,,0.00,345.000000,,2013-06-28 01:24:00,
2013-06-27 19:34:00,75.0,29.0,-100.00,West,267,4.0,13.0,18,0.00,,,0.00,59.000000,,2013-06-28 01:34:00,
2013-06-27 19:57:00,75.0,29.0,-100.00,West,267,4.0,13.0,18,0.00,,,0.00,59.000000,,2013-06-28 01:57:00,
2013-06-27 20:16:00,75.0,29.0,-100.00,West,267,4.0,13.0,18,0.00,,,0.00,59.000000,,2013-06-28 02:16:00,
2013-06-27 20:26:00,75.0,29.0,-100.00,West,267,4.0,13.0,18,0.00,,,0.00,59.000000,,2013-06-28 02:26:00,
2013-06-27 20:34:00,71.0,31.0,-100.00,SW,228,8.0,30.0,23,0.00,,,0.00,9.000000,,2013-06-28 02:34:00,
2013-06-27 20:57:00,71.0,31.0,-100.00,SW,228,8.0,30.0,23,0.00,,,0.00,9.000000,,2013-06-28 02:57:00,
2013-06-27 21:06:00,71.0,31.0,-100.00,SW,228,8.0,30.0,23,0.00,,,0.00,9.000000,,2013-06-28 03:06:00,
2013-06-27 21:14:00,71.0,31.0,-100.00,SW,228,8.0,30.0,23,0.00,,,0.00,9.000000,,2013-06-28 03:14:00,
2013-06-27 21:26:00,71.0,31.0,-100.00,SW,228,8.0,30.0,23,0.00,,,0.00,9.000000,,2013-06-28 03:26:00,
2013-06-27 21:56:00,70.0,32.0,-100.00,SSW,197,5.0,24.0,24,0.00,,,0.00,1.000000,,2013-06-28 03:56:00,
2013-06-27 22:02:00,70.0,32.0,-100.00,SSW,197,5.0,24.0,24,0.00,,,0.00,1.000000,,2013-06-28 04:02:00,
2013-06-27 22:11:00,70.0,32.0,-100.00,SSW,197,5.0,24.0,24,0.00,,,0.00,1.000000,,2013-06-28 04:11:00,
2013-06-27 22:22:00,70.0,32.0,-100.00,SSW,197,5.0,24.0,24,0.00,,,0.00,1.000000,,2013-06-28 04:22:00,
2013-06-27 22:33:00,70.0,32.0,-100.00,SSW,197,5.0,24.0,24,0.00,,,0.00,1.000000,,2013-06-28 04:33:00,
2013-06-27 23:01:00,68.0,34.0,-100.00,East,82,5.0,10.0,28,0.00,,,0.00,0.000000,,2013-06-28 05:01:00,
2013-06-27 23:11:00,68.0,34.0,-100.00,East,82,5.0,10.0,28,0.00,,,0.00,0.000000,,2013-06-28 05:11:00,
2013-06-27 23:22:00,68.0,34.0,-100.00,East,82,5.0,10.0,28,0.00,,,0.00,0.000000,,2013-06-28 05:22:00,
2013-06-27 23:33:00,68.0,34.0,-100.00,East,82,5.0,10.0,28,0.00,,,0.00,0.000000,,2013-06-28 05:33:00,